Time;durP1;ratioP1;P1;durP2;ratioP2;P2;SDS_P1;SDS_P2;PMS_P1;PMS_P2;Temp;Humidity;BMP_temperature;BMP_pressure;BME280_temperature;BME280_humidity;BME280_pressure;Samples;Min_cycle;Max_cycle;Signal;HPM_P1;HPM_P2
2023/06/04 00:09:53;;;;;;;13.27;9.50;;;10.60;99.90;;;;;;20926779;28;20044;-49
2023/06/04 00:19:54;;;;;;;11.15;8.77;;;10.50;99.90;;;;;;20926154;28;20029;-43
2023/06/04 00:29:56;;;;;;;11.93;8.40;;;10.50;99.90;;;;;;20929197;28;20074;-48
2023/06/04 00:39:58;;;;;;;10.10;6.90;;;10.50;99.90;;;;;;20924470;28;20103;-49
2023/06/04 00:50:00;;;;;;;8.73;6.18;;;10.40;99.90;;;;;;20933163;28;20033;-51
2023/06/04 01:00:03;;;;;;;14.20;8.30;;;10.50;99.90;;;;;;20920311;28;20378;-46
2023/06/04 01:10:07;;;;;;;9.95;7.28;;;10.40;99.90;;;;;;20911268;28;20078;-47
2023/06/04 01:20:12;;;;;;;13.93;7.85;;;10.50;99.90;;;;;;20909294;28;20363;-48
2023/06/04 01:30:15;;;;;;;11.82;9.00;;;10.40;99.90;;;;;;20910821;28;20032;-53
2023/06/04 01:40:17;;;;;;;19.17;11.18;;;10.40;99.90;;;;;;20913367;28;20638;-49
2023/06/04 01:50:19;;;;;;;11.80;8.98;;;10.50;99.90;;;;;;20908587;28;20067;-42
2023/06/04 02:00:21;;;;;;;15.68;10.52;;;10.50;99.90;;;;;;20908656;28;20079;-48
2023/06/04 02:10:22;;;;;;;16.40;11.07;;;10.50;99.90;;;;;;20910191;28;20036;-51
2023/06/04 02:20:25;;;;;;;15.68;11.95;;;10.50;99.90;;;;;;20904681;28;20040;-47
2023/06/04 02:30:27;;;;;;;13.38;9.85;;;10.60;99.90;;;;;;20903235;28;20033;-46
2023/06/04 02:40:29;;;;;;;13.82;9.40;;;10.60;99.90;;;;;;20904460;28;20371;-51
2023/06/04 02:50:30;;;;;;;12.15;8.82;;;10.60;99.90;;;;;;20908204;28;20036;-48
2023/06/04 03:00:32;;;;;;;12.63;9.40;;;10.70;99.90;;;;;;20905993;28;20029;-52
2023/06/04 03:10:34;;;;;;;15.80;10.18;;;10.70;99.90;;;;;;20902020;28;20036;-53
2023/06/04 03:20:37;;;;;;;15.18;9.82;;;10.70;99.90;;;;;;20904583;28;20033;-50
2023/06/04 03:30:40;;;;;;;14.63;10.27;;;10.70;99.90;;;;;;20906307;28;20040;-46
2023/06/04 03:40:43;;;;;;;17.42;11.32;;;10.70;99.90;;;;;;20898888;28;20071;-43
2023/06/04 03:50:49;;;;;;;18.02;12.05;;;10.70;99.90;;;;;;20904445;28;20090;-46
2023/06/04 04:00:51;;;;;;;23.08;13.40;;;10.70;99.90;;;;;;20897758;28;20064;-47
2023/06/04 04:10:54;;;;;;;20.73;12.98;;;10.70;99.90;;;;;;20897391;28;20044;-46
2023/06/04 04:20:56;;;;;;;25.27;15.20;;;10.80;99.90;;;;;;20898687;28;20059;-49
2023/06/04 04:31:02;;;;;;;22.88;15.07;;;10.80;99.90;;;;;;20902379;28;20037;-49
2023/06/04 04:41:07;;;;;;;21.80;13.77;;;10.90;99.90;;;;;;20906752;28;20052;-46
2023/06/04 04:51:09;;;;;;;17.98;12.10;;;11.20;99.90;;;;;;20916352;28;20036;-51
2023/06/04 05:01:12;;;;;;;13.60;9.95;;;11.60;99.90;;;;;;20914964;28;20436;-46
2023/06/04 05:11:16;;;;;;;13.63;9.93;;;11.90;99.90;;;;;;20914296;28;20028;-52
2023/06/04 05:21:18;;;;;;;9.10;7.70;;;12.20;99.90;;;;;;20909642;28;20037;-51
2023/06/04 05:31:27;;;;;;;9.00;8.07;;;12.20;99.90;;;;;;20912053;28;20029;-47
2023/06/04 05:41:30;;;;;;;7.38;5.90;;;12.30;99.90;;;;;;20908771;28;20045;-45
2023/06/04 05:51:35;;;;;;;5.00;4.50;;;12.50;99.90;;;;;;20912248;28;20544;-48
2023/06/04 06:01:38;;;;;;;6.20;4.95;;;12.60;99.90;;;;;;20911512;28;20359;-48
2023/06/04 06:11:40;;;;;;;6.10;5.50;;;12.80;99.90;;;;;;20909817;28;20032;-55
2023/06/04 06:21:42;;;;;;;9.38;5.40;;;13.00;99.90;;;;;;20910580;28;20044;-47
2023/06/04 06:31:44;;;;;;;6.10;5.32;;;13.20;99.90;;;;;;20904973;28;20032;-53
2023/06/04 06:41:46;;;;;;;7.40;5.97;;;13.20;99.90;;;;;;20907564;28;20037;-49
2023/06/04 06:51:53;;;;;;;8.23;6.43;;;13.30;99.90;;;;;;20903029;28;20040;-53
2023/06/04 07:01:55;;;;;;;8.35;6.30;;;13.40;99.90;;;;;;20902018;28;20087;-46
2023/06/04 07:11:57;;;;;;;8.00;7.00;;;13.40;99.90;;;;;;20903635;28;20021;-52
2023/06/04 07:21:58;;;;;;;9.65;7.00;;;13.30;99.90;;;;;;20901750;28;20040;-47
2023/06/04 07:32:00;;;;;;;8.23;6.85;;;13.30;99.90;;;;;;20900562;28;20037;-54
2023/06/04 07:42:02;;;;;;;8.60;6.68;;;13.40;99.90;;;;;;20901973;28;20508;-48
2023/06/04 07:52:04;;;;;;;8.90;6.85;;;13.60;99.90;;;;;;20902858;28;20040;-50
2023/06/04 08:02:05;;;;;;;8.60;7.13;;;13.90;99.90;;;;;;20906888;28;20033;-52
2023/06/04 08:12:07;;;;;;;10.50;8.05;;;14.00;99.90;;;;;;20905536;28;20033;-46
2023/06/04 08:34:15;;;;;;;9.93;7.85;;;14.00;99.90;;;;;;21002866;28;20044;-54
2023/06/04 08:44:18;;;;;;;10.55;8.02;;;14.00;99.90;;;;;;21030976;28;20043;-51
2023/06/04 08:54:19;;;;;;;7.75;6.78;;;14.20;99.90;;;;;;21035949;28;20027;-53
2023/06/04 09:04:21;;;;;;;7.45;6.63;;;14.70;99.90;;;;;;21032931;28;20036;-51
2023/06/04 09:14:24;;;;;;;8.57;6.70;;;15.70;99.90;;;;;;21026202;28;20051;-51
2023/06/04 09:24:39;;;;;;;6.20;5.40;;;16.60;99.90;;;;;;21033229;28;20044;-48
2023/06/04 09:34:45;;;;;;;9.50;5.97;;;17.10;99.90;;;;;;21014457;28;20048;-51
2023/06/04 09:44:46;;;;;;;6.90;5.50;;;18.30;99.90;;;;;;20914941;28;20036;-45
2023/06/04 09:54:48;;;;;;;6.95;5.30;;;18.20;99.90;;;;;;20900331;28;20032;-45
2023/06/04 10:04:58;;;;;;;4.82;4.32;;;18.30;99.90;;;;;;20907259;28;20470;-48
2023/06/04 10:15:05;;;;;;;4.07;3.70;;;19.00;99.90;;;;;;20911496;28;20433;-49
2023/06/04 10:25:10;;;;;;;6.40;5.60;;;18.20;99.90;;;;;;20911060;28;20052;-45
2023/06/04 10:35:12;;;;;;;6.03;5.43;;;17.00;99.90;;;;;;20916317;28;20040;-49
2023/06/04 10:45:13;;;;;;;4.80;4.18;;;16.70;99.90;;;;;;20923010;28;20548;-46
2023/06/04 10:55:15;;;;;;;5.75;5.07;;;18.10;99.90;;;;;;20928472;28;20036;-53
2023/06/04 11:05:17;;;;;;;5.20;4.50;;;17.90;99.90;;;;;;20943071;28;20048;-52
2023/06/04 11:15:19;;;;;;;5.68;5.03;;;17.50;99.90;;;;;;20917230;28;20025;-48
2023/06/04 11:25:22;;;;;;;6.05;4.97;;;17.40;99.90;;;;;;20923102;28;20033;-53
2023/06/04 11:35:23;;;;;;;6.30;5.20;;;17.40;99.90;;;;;;20935852;28;20040;-52
2023/06/04 11:45:29;;;;;;;5.55;5.05;;;17.70;99.90;;;;;;21023221;28;20036;-46
2023/06/04 11:55:32;;;;;;;6.78;4.65;;;18.70;99.90;;;;;;21013794;28;20501;-53
2023/06/04 12:05:34;;;;;;;8.20;5.55;;;19.20;99.90;;;;;;21017028;28;20044;-47
2023/06/04 12:15:36;;;;;;;5.60;5.10;;;19.00;99.90;;;;;;21020615;28;20086;-48
2023/06/04 12:25:38;;;;;;;6.07;5.47;;;18.50;99.90;;;;;;21032636;28;20032;-50
2023/06/04 12:35:40;;;;;;;7.07;6.38;;;18.20;99.90;;;;;;21023056;28;20405;-51
2023/06/04 12:45:44;;;;;;;7.32;5.97;;;18.50;99.90;;;;;;21026136;28;20036;-54
2023/06/04 12:55:46;;;;;;;8.45;6.38;;;19.00;99.90;;;;;;21030612;28;20408;-51
2023/06/04 13:05:48;;;;;;;6.72;6.03;;;20.40;99.90;;;;;;21043631;28;20078;-51
2023/06/04 13:15:50;;;;;;;7.70;6.90;;;20.40;99.90;;;;;;21045190;28;20434;-49
2023/06/04 13:25:52;;;;;;;8.68;7.55;;;18.90;99.90;;;;;;21039048;28;20024;-51
2023/06/04 13:35:54;;;;;;;8.05;7.18;;;18.20;99.90;;;;;;21024452;28;20079;-50
2023/06/04 13:45:56;;;;;;;9.15;7.07;;;18.80;99.90;;;;;;21039957;28;20039;-50
2023/06/04 13:55:59;;;;;;;9.70;8.60;;;18.80;99.90;;;;;;21074253;28;20085;-53
2023/06/04 14:06:00;;;;;;;10.13;9.13;;;18.30;99.90;;;;;;21073935;28;20032;-49
2023/06/04 14:16:02;;;;;;;13.07;9.30;;;17.70;99.90;;;;;;21072803;28;20036;-49
2023/06/04 14:26:04;;;;;;;11.25;10.15;;;17.10;99.90;;;;;;21053835;28;20089;-49
2023/06/04 14:36:06;;;;;;;12.77;10.18;;;17.20;99.90;;;;;;21071356;28;20048;-53
2023/06/04 14:46:08;;;;;;;12.18;10.57;;;18.00;99.90;;;;;;21071421;28;20396;-54
2023/06/04 14:56:09;;;;;;;10.55;9.45;;;17.60;99.90;;;;;;21069433;28;20032;-54
2023/06/04 15:06:11;;;;;;;22.73;15.43;;;16.80;99.90;;;;;;21070197;28;20474;-51
2023/06/04 15:16:13;;;;;;;21.05;14.20;;;16.10;99.90;;;;;;21067900;28;20054;-48
2023/06/04 15:26:16;;;;;;;14.35;11.13;;;14.70;99.90;;;;;;21066862;28;20032;-47
2023/06/04 15:36:18;;;;;;;15.32;11.80;;;13.70;99.90;;;;;;21066854;28;20056;-45
2023/06/04 15:46:23;;;;;;;14.93;11.55;;;13.20;99.90;;;;;;21066685;28;20032;-53
2023/06/04 15:56:25;;;;;;;11.20;9.77;;;13.40;99.90;;;;;;21065563;28;20036;-53
2023/06/04 16:06:27;;;;;;;14.73;11.15;;;13.40;99.90;;;;;;21063794;28;20414;-48
2023/06/04 16:16:30;;;;;;;13.38;11.75;;;13.80;99.90;;;;;;21065429;28;20036;-55
2023/06/04 16:26:31;;;;;;;14.50;11.68;;;14.10;99.90;;;;;;21064705;28;20036;-46
2023/06/04 16:36:34;;;;;;;17.08;13.82;;;13.80;99.90;;;;;;21075145;28;20036;-44
2023/06/04 16:46:36;;;;;;;18.13;14.15;;;13.30;99.90;;;;;;21079978;28;20036;-51
2023/06/04 16:56:38;;;;;;;19.83;13.95;;;13.00;99.90;;;;;;21079551;28;20459;-48
2023/06/04 17:06:40;;;;;;;17.38;13.23;;;12.80;99.90;;;;;;21078928;28;20546;-49
2023/06/04 17:16:42;;;;;;;17.73;15.48;;;12.60;99.90;;;;;;21077367;28;20032;-45
2023/06/04 17:26:43;;;;;;;30.38;14.45;;;12.40;99.90;;;;;;21076598;28;20028;-49
2023/06/04 17:36:45;;;;;;;8.05;7.25;;;12.50;99.90;;;;;;21074900;28;20438;-44
2023/06/04 17:46:46;;;;;;;10.35;7.90;;;12.20;99.90;;;;;;21057161;28;20040;-48
2023/06/04 17:56:48;;;;;;;14.60;10.02;;;11.70;99.90;;;;;;21074511;28;20044;-44
2023/06/04 18:06:50;;;;;;;16.23;10.88;;;11.50;99.90;;;;;;21074192;28;20063;-44
2023/06/04 18:16:51;;;;;;;19.33;12.55;;;11.30;99.90;;;;;;21073139;28;20036;-42
2023/06/04 18:26:58;;;;;;;15.85;12.23;;;11.30;99.90;;;;;;21072058;28;20028;-47
2023/06/04 18:37:01;;;;;;;20.38;14.15;;;11.30;99.90;;;;;;21068496;28;20036;-48
2023/06/04 18:47:04;;;;;;;31.95;21.92;;;11.20;99.90;;;;;;21069945;28;20031;-47
2023/06/04 18:57:07;;;;;;;33.90;23.77;;;11.50;99.90;;;;;;21068553;28;20069;-49
2023/06/04 19:07:09;;;;;;;627.42;28.90;;;11.70;99.90;;;;;;21066818;28;20546;-52
2023/06/04 19:17:18;;;;;;;137.85;11.40;;;12.00;99.90;;;;;;21067753;28;20020;-51
2023/06/04 19:27:20;;;;;;;343.90;17.20;;;11.80;99.90;;;;;;21067782;28;20107;-50
2023/06/04 19:37:22;;;;;;;410.20;15.48;;;11.70;99.90;;;;;;21064232;28;20048;-52
2023/06/04 19:47:23;;;;;;;4.32;3.55;;;11.70;99.90;;;;;;21064781;28;20040;-49
2023/06/04 19:57:25;;;;;;;5.05;3.60;;;11.70;99.90;;;;;;21062705;28;20032;-49
2023/06/04 20:07:28;;;;;;;2.85;2.00;;;11.60;99.90;;;;;;21071353;28;20050;-52
2023/06/04 20:17:30;;;;;;;2.70;1.73;;;11.30;99.90;;;;;;21082536;28;20366;-49
2023/06/04 20:27:32;;;;;;;3.80;2.10;;;10.70;99.90;;;;;;21081628;28;20028;-47
2023/06/04 20:37:39;;;;;;;3.17;2.17;;;10.40;99.90;;;;;;21062918;28;20044;-51
2023/06/04 20:47:41;;;;;;;3.17;1.90;;;10.20;99.90;;;;;;21059057;28;20111;-51
2023/06/04 20:57:43;;;;;;;4.68;2.13;;;9.90;99.90;;;;;;21075095;28;20093;-50
2023/06/04 21:07:45;;;;;;;4.43;2.10;;;9.80;99.90;;;;;;21078662;28;20040;-44
2023/06/04 21:17:46;;;;;;;3.80;2.40;;;9.70;99.90;;;;;;21076468;28;20058;-47
2023/06/04 21:27:48;;;;;;;3.65;2.33;;;9.60;99.90;;;;;;21077058;28;20032;-44
2023/06/04 21:37:50;;;;;;;4.80;3.30;;;9.60;99.90;;;;;;21075749;28;20044;-52
2023/06/04 21:47:52;;;;;;;7.25;2.70;;;9.50;99.90;;;;;;21075347;28;20024;-47
2023/06/04 21:57:54;;;;;;;3.60;1.50;;;9.50;99.90;;;;;;21074483;28;20051;-52
2023/06/04 22:07:55;;;;;;;1.35;1.10;;;9.60;99.90;;;;;;21073898;28;20028;-42
2023/06/04 22:17:57;;;;;;;1.40;0.70;;;9.60;99.90;;;;;;21073089;28;20027;-42
2023/06/04 22:27:59;;;;;;;1.10;0.80;;;9.60;99.90;;;;;;21071604;28;20089;-42
2023/06/04 22:38:01;;;;;;;1.10;0.98;;;9.50;99.90;;;;;;21052644;28;20044;-54
2023/06/04 22:48:03;;;;;;;2.03;1.40;;;9.40;99.90;;;;;;21052269;28;20494;-48
2023/06/04 22:58:05;;;;;;;4.72;2.40;;;9.40;99.90;;;;;;21051358;28;20062;-43
2023/06/04 23:08:06;;;;;;;3.92;3.22;;;9.40;99.90;;;;;;21050137;28;20032;-49
2023/06/04 23:18:08;;;;;;;7.20;4.28;;;9.40;99.90;;;;;;21068505;28;20062;-49
2023/06/04 23:28:10;;;;;;;6.20;4.63;;;9.30;99.90;;;;;;21049665;28;20028;-43
2023/06/04 23:38:12;;;;;;;8.50;5.70;;;9.40;99.90;;;;;;21067033;28;20040;-42
2023/06/04 23:48:15;;;;;;;10.68;7.03;;;9.60;99.90;;;;;;21047881;28;20043;-51
2023/06/04 23:58:17;;;;;;;8.07;6.10;;;9.70;99.90;;;;;;21062771;28;20032;-44
